createdAt,value
2018-09-04T12:04:42.194Z,91.37
2018-09-04T12:05:41.899Z,91.37
2018-09-04T12:06:42.061Z,91.47
2018-09-04T12:07:42.421Z,91.71
2018-09-04T12:08:42.477Z,90.78
2018-09-04T12:09:42.594Z,90.30
2018-09-04T12:10:42.808Z,91.99
2018-09-04T12:11:42.994Z,89.42
2018-09-04T12:12:43.259Z,87.33
2018-09-04T12:13:43.377Z,86.50
2018-09-04T12:14:43.594Z,86.60
2018-09-04T12:15:43.748Z,85.24
2018-09-04T12:16:43.966Z,85.19
2018-09-04T12:17:44.162Z,85.88
2018-09-04T12:18:44.354Z,85.88
2018-09-04T12:19:44.538Z,84.77
2018-09-04T12:20:44.830Z,85.54
2018-09-04T12:21:44.937Z,85.83
2018-09-04T12:22:45.246Z,85.25
2018-09-04T12:23:45.312Z,85.49
2018-09-04T12:24:45.519Z,83.45
2018-09-04T12:25:45.742Z,80.93
2018-09-04T12:26:45.896Z,82.57
2018-09-04T12:27:46.253Z,82.53
2018-09-04T12:28:47.107Z,84.86
2018-09-04T12:29:46.442Z,84.09
2018-09-04T12:30:46.641Z,83.22
2018-09-04T12:31:46.932Z,83.12
2018-09-04T12:32:47.089Z,83.37
2018-09-04T12:33:47.328Z,83.50
2018-09-04T12:34:47.489Z,83.60
2018-09-04T12:35:47.762Z,84.09
2018-09-04T12:36:47.891Z,88.88
2018-09-04T12:37:48.158Z,84.94
2018-09-04T12:38:48.323Z,82.13
2018-09-04T12:39:48.640Z,80.91
2018-09-04T12:40:48.763Z,80.52
2018-09-04T12:41:48.889Z,76.25
2018-09-04T12:42:49.082Z,75.76
2018-09-04T12:43:49.311Z,76.83
2018-09-04T12:44:49.519Z,75.21
2018-09-04T12:45:49.700Z,73.56
2018-09-04T12:46:49.902Z,73.37
2018-09-04T12:47:50.083Z,72.98
2018-09-04T12:48:50.346Z,76.54
2018-09-04T12:49:50.502Z,77.70
2018-09-04T12:50:50.744Z,77.99
2018-09-04T12:51:50.883Z,76.05
2018-09-04T12:52:51.091Z,75.47
2018-09-04T12:53:51.288Z,75.08
2018-09-04T12:54:51.479Z,75.18
2018-09-04T12:55:51.702Z,75.47
2018-09-04T12:56:51.833Z,77.22
2018-09-04T12:57:52.054Z,76.38
2018-09-04T12:58:52.227Z,75.18
2018-09-04T12:59:52.500Z,76.05
2018-09-04T13:00:52.668Z,76.54
2018-09-04T13:01:52.871Z,76.67
2018-09-04T13:02:53.039Z,75.12
2018-09-04T13:03:53.241Z,75.64
2018-09-04T13:04:53.432Z,74.48
2018-09-04T13:05:53.623Z,73.99
2018-09-04T13:06:53.812Z,72.24
2018-09-04T13:07:54.043Z,71.85
2018-09-04T13:08:54.256Z,68.64
2018-09-04T13:09:54.422Z,69.67
2018-09-04T13:10:54.607Z,69.87
2018-09-04T13:11:54.805Z,68.60
2018-09-04T13:12:55.027Z,68.22
2018-09-04T13:13:55.234Z,70.00
2018-09-04T13:14:55.397Z,68.60
2018-09-04T13:15:55.596Z,69.29
2018-09-04T13:16:55.785Z,69.09
2018-09-04T13:17:56.016Z,69.29
2018-09-04T13:18:57.134Z,70.29
2018-09-04T13:19:56.474Z,70.39
2018-09-04T13:20:56.658Z,69.13
2018-09-04T13:21:56.872Z,67.28
2018-09-04T13:22:57.071Z,67.38
2018-09-04T13:23:57.249Z,68.74
2018-09-04T13:24:57.450Z,67.18
2018-09-04T13:25:57.653Z,67.67
2018-09-04T13:26:57.842Z,65.92
2018-09-04T13:27:58.062Z,67.28
2018-09-04T13:28:58.266Z,66.93
2018-09-04T13:29:58.422Z,63.49
2018-09-04T13:30:58.611Z,61.93
2018-09-04T13:31:58.801Z,63.59
2018-09-04T13:32:59.026Z,63.62
2018-09-04T13:33:59.225Z,62.32
2018-09-04T13:34:59.417Z,65.23
2018-09-04T13:35:59.576Z,68.87
2018-09-04T13:36:59.768Z,66.63
2018-09-04T13:37:59.989Z,67.31
2018-09-04T13:39:00.152Z,67.02
2018-09-04T13:40:00.368Z,68.38
2018-09-04T13:41:00.577Z,68.09
2018-09-04T13:42:00.746Z,66.79
2018-09-04T13:43:00.973Z,66.89
2018-09-04T13:44:01.131Z,66.34
2018-09-04T13:45:01.310Z,64.85
2018-09-04T13:46:01.514Z,65.43
2018-09-04T13:47:01.702Z,67.21
2018-09-04T13:48:01.901Z,67.28
2018-09-04T13:49:02.115Z,68.54
2018-09-04T13:50:02.294Z,69.42
2018-09-04T13:51:02.520Z,68.15
2018-09-04T13:52:02.711Z,69.42
2018-09-04T13:53:02.899Z,71.20
2018-09-04T13:54:03.113Z,68.74
2018-09-04T13:55:03.326Z,68.67
2018-09-04T13:56:03.456Z,68.57
2018-09-04T13:57:03.694Z,67.41
2018-09-04T13:58:03.844Z,67.90
2018-09-04T13:59:04.038Z,67.44
2018-09-04T14:00:04.221Z,64.78
2018-09-04T14:01:04.425Z,65.23
2018-09-04T14:02:04.686Z,67.31
2018-09-04T14:03:04.796Z,66.63
2018-09-04T14:04:04.989Z,67.31
2018-09-04T14:05:05.170Z,63.81
2018-09-04T14:06:05.356Z,64.00
2018-09-04T14:07:05.571Z,62.06
2018-09-04T14:08:05.761Z,60.21
2018-09-04T14:09:05.953Z,60.38
2018-09-04T14:10:06.145Z,60.67
2018-09-04T14:11:06.388Z,60.28
2018-09-04T14:12:06.523Z,58.62
2018-09-04T14:13:06.711Z,57.65
2018-09-04T14:14:06.922Z,56.10
2018-09-04T14:15:07.125Z,58.23
2018-09-04T14:16:07.311Z,60.67
2018-09-04T14:17:07.525Z,62.03
2018-09-04T14:18:07.691Z,63.13
2018-09-04T14:19:07.909Z,61.28
2018-09-04T14:20:08.132Z,61.87
2018-09-04T14:21:08.364Z,64.88
2018-09-04T14:22:08.530Z,63.52
2018-09-04T14:23:08.705Z,64.98
2018-09-04T14:24:08.912Z,63.52
2018-09-04T14:25:09.128Z,62.64
2018-09-04T14:26:09.356Z,64.26
2018-09-04T14:27:09.526Z,65.37
2018-09-04T14:28:09.732Z,64.85
2018-09-04T14:29:09.939Z,68.09
2018-09-04T14:30:17.130Z,68.67
2018-09-04T14:31:10.308Z,70.42
2018-09-04T14:32:10.507Z,70.62
2018-09-04T14:33:10.752Z,72.08
2018-09-04T14:34:10.903Z,73.89
2018-09-04T14:35:11.113Z,74.51
2018-09-04T14:36:11.280Z,75.25
2018-09-04T14:37:11.566Z,75.70
2018-09-04T14:38:11.705Z,76.38
2018-09-04T14:39:11.852Z,77.61
2018-09-04T14:40:12.067Z,77.80
2018-09-04T14:41:12.297Z,79.74
2018-09-04T14:42:12.453Z,79.64
2018-09-04T14:43:12.657Z,80.04
2018-09-04T14:44:12.828Z,77.41
2018-09-04T14:45:13.020Z,73.49
2018-09-04T14:46:13.223Z,73.91
2018-09-04T14:47:13.444Z,69.32
2018-09-04T14:48:13.605Z,67.73
2018-09-04T14:49:13.784Z,67.14
2018-09-04T14:50:13.998Z,67.86
2018-09-04T14:51:14.187Z,66.60
2018-09-04T14:52:14.374Z,63.49
2018-09-04T14:53:14.608Z,63.52
2018-09-04T14:54:14.711Z,63.32
2018-09-04T14:55:14.947Z,63.81
2018-09-04T14:56:15.100Z,62.07
2018-09-04T14:57:15.302Z,62.87
2018-09-04T14:58:15.488Z,60.54
2018-09-04T14:59:15.669Z,60.35
2018-09-04T15:00:15.885Z,58.47
2018-09-04T15:01:16.084Z,59.05
2018-09-04T15:02:16.282Z,59.05
2018-09-04T15:03:16.486Z,59.76
2018-09-04T15:04:16.646Z,59.67
2018-09-04T15:05:16.851Z,60.54
2018-09-04T15:06:17.078Z,58.01
2018-09-04T15:07:17.346Z,59.79
2018-09-04T15:08:17.422Z,59.23
2018-09-04T15:09:17.640Z,58.65
2018-09-04T15:10:17.838Z,58.46
2018-09-04T15:11:18.021Z,56.90
2018-09-04T15:12:18.243Z,54.47
2018-09-04T15:13:18.403Z,54.74
2018-09-04T15:14:18.641Z,54.38
2018-09-04T15:15:18.790Z,57.10
2018-09-04T15:16:18.992Z,57.10
2018-09-04T15:17:19.181Z,54.86
2018-09-04T15:18:19.378Z,55.74
2018-09-04T15:19:19.598Z,56.87
2018-09-04T15:20:19.801Z,54.90
2018-09-04T15:21:19.944Z,56.20
2018-09-04T15:22:20.175Z,59.23
2018-09-04T15:23:20.322Z,57.97
2018-09-04T15:24:20.504Z,58.36
2018-09-04T15:25:20.772Z,56.22
2018-09-04T15:26:20.888Z,57.81
2018-09-04T15:27:21.095Z,56.32
2018-09-04T15:28:21.316Z,56.61
2018-09-04T15:29:21.457Z,55.61
2018-09-04T15:30:21.652Z,57.39
2018-09-04T15:31:21.831Z,56.87
2018-09-04T15:32:22.057Z,60.89
2018-09-04T15:33:22.213Z,63.32
2018-09-04T15:34:22.408Z,64.26
2018-09-04T15:35:22.581Z,63.52
2018-09-04T15:36:22.798Z,61.57
2018-09-04T15:37:22.984Z,59.99
2018-09-04T15:38:23.154Z,60.67
2018-09-04T15:39:23.396Z,61.93
2018-09-04T15:40:23.595Z,61.61
2018-09-04T15:41:23.795Z,59.99
2018-09-04T15:42:23.997Z,61.35
2018-09-04T15:43:24.162Z,59.86
2018-09-04T15:44:24.338Z,60.25
2018-09-04T15:45:24.520Z,62.10
2018-09-04T15:46:24.722Z,62.58
2018-09-04T15:47:24.951Z,64.30
2018-09-04T15:48:25.150Z,62.55
2018-09-04T15:49:25.401Z,61.68
2018-09-04T15:50:25.547Z,61.29
2018-09-04T15:51:25.762Z,62.84
2018-09-04T15:52:25.940Z,63.04
2018-09-04T15:53:26.115Z,62.71
2018-09-04T15:54:26.319Z,61.45
2018-09-04T15:55:26.515Z,62.07
2018-09-04T15:56:26.696Z,65.05
2018-09-04T15:57:26.862Z,64.56
2018-09-04T15:58:27.064Z,64.75
2018-09-04T15:59:27.254Z,63.49
2018-09-04T16:00:27.418Z,64.07
2018-09-04T16:01:27.619Z,64.46
2018-09-04T16:02:27.806Z,65.05
2018-09-04T16:03:28.019Z,67.28
2018-09-04T16:04:28.209Z,66.76
2018-09-04T16:05:28.371Z,66.86
2018-09-04T16:06:28.555Z,66.86
2018-09-04T16:07:28.796Z,66.79
2018-09-04T16:08:28.935Z,66.79
2018-09-04T16:09:29.162Z,68.12
2018-09-04T16:10:29.373Z,67.76
2018-09-04T16:11:29.518Z,68.44
2018-09-04T16:12:29.740Z,69.48
2018-09-04T16:13:29.898Z,68.63
2018-09-04T16:14:30.122Z,68.02
2018-09-04T16:15:30.357Z,66.89
2018-09-04T16:16:30.454Z,67.96
2018-09-04T16:17:30.661Z,67.92
2018-09-04T16:18:30.841Z,67.47
2018-09-04T16:19:31.029Z,68.70
2018-09-04T16:20:31.253Z,68.12
2018-09-04T16:21:31.427Z,68.41
2018-09-04T16:22:31.659Z,68.70
2018-09-04T16:23:31.844Z,68.89
2018-09-04T16:24:32.037Z,68.86
2018-09-04T16:25:32.166Z,69.06
2018-09-04T16:26:32.332Z,69.73
2018-09-04T16:27:32.526Z,68.57
2018-09-04T16:28:32.758Z,69.24
2018-09-04T16:29:32.967Z,69.64
2018-09-04T16:30:33.089Z,70.09
2018-09-04T16:31:33.270Z,70.90
2018-09-04T16:32:33.473Z,70.76
2018-09-04T16:33:33.686Z,70.90
2018-09-04T16:34:33.848Z,70.76
2018-09-04T16:35:34.092Z,70.57
2018-09-04T16:36:34.240Z,71.34
2018-09-04T16:37:34.384Z,71.25
2018-09-04T16:38:34.571Z,71.15
2018-09-04T16:39:34.782Z,71.34
2018-09-04T16:40:35.076Z,72.31
2018-09-04T16:41:35.197Z,72.22
2018-09-04T16:42:35.298Z,71.93
2018-09-04T16:43:35.517Z,72.31
2018-09-04T16:44:35.726Z,72.51
2018-09-04T16:45:35.932Z,72.51
2018-09-04T16:46:36.077Z,72.09
2018-09-04T16:47:36.245Z,71.50
2018-09-04T16:48:36.526Z,72.38
2018-09-04T16:49:36.638Z,72.38
2018-09-04T16:50:37.746Z,71.60
2018-09-04T16:51:37.042Z,72.09
2018-09-04T16:52:37.197Z,72.57
2018-09-04T16:53:37.403Z,73.05
2018-09-04T16:54:37.620Z,73.15
2018-09-04T16:55:37.782Z,74.32
2018-09-04T16:56:37.993Z,74.32
2018-09-04T16:57:38.191Z,74.80
2018-09-04T16:58:38.373Z,74.47
2018-09-04T16:59:38.616Z,74.47
2018-09-04T17:00:38.775Z,74.76
2018-09-04T17:01:38.938Z,75.54
2018-09-04T17:02:39.131Z,75.92
2018-09-04T17:03:39.305Z,75.92
2018-09-04T17:04:39.518Z,75.44
2018-09-04T17:05:39.746Z,75.92
2018-09-04T17:06:39.859Z,76.66
2018-09-04T17:07:40.110Z,75.89
2018-09-04T17:08:40.374Z,75.98
2018-09-04T17:09:40.467Z,76.08
2018-09-04T17:10:40.681Z,76.37
2018-09-04T17:11:40.941Z,77.63
2018-09-04T17:12:41.167Z,78.69
2018-09-04T17:13:41.230Z,78.02
2018-09-04T17:14:41.423Z,78.11
2018-09-04T17:15:41.590Z,78.11
2018-09-04T17:16:41.908Z,78.02
2018-09-04T17:17:42.000Z,78.21
2018-09-04T17:18:42.242Z,77.92
2018-09-04T17:19:42.375Z,79.08
2018-09-04T17:20:42.567Z,79.08
2018-09-04T17:21:42.771Z,79.08
2018-09-04T17:22:42.956Z,80.34
2018-09-04T17:23:43.695Z,80.69
2018-09-04T17:24:43.341Z,79.72
2018-09-04T17:25:44.376Z,79.62
2018-09-04T17:26:43.720Z,79.14
2018-09-04T17:27:43.896Z,79.14
2018-09-04T17:28:44.180Z,79.91
2018-09-04T17:29:44.378Z,80.40
2018-09-04T17:30:44.516Z,79.72
2018-09-04T17:31:44.757Z,80.49
2018-09-04T17:32:45.189Z,81.52
2018-09-04T17:33:46.014Z,82.29
2018-09-04T17:34:45.334Z,83.45
2018-09-04T17:35:45.474Z,83.89
2018-09-04T17:36:46.024Z,85.68
2018-09-04T17:37:46.374Z,86.89
2018-09-04T17:38:46.052Z,86.41
2018-09-04T17:39:46.410Z,86.60
2018-09-04T17:40:46.472Z,87.18
2018-09-04T17:41:46.736Z,88.34
2018-09-04T17:42:46.910Z,88.92
2018-09-04T17:43:47.759Z,88.05
2018-09-04T17:44:47.220Z,89.31
2018-09-04T17:45:47.421Z,89.40
2018-09-04T17:46:48.208Z,89.89
2018-09-04T17:47:48.312Z,90.66
2018-09-04T17:48:48.080Z,90.56
2018-09-04T17:49:48.761Z,91.33
2018-09-04T17:50:48.554Z,91.72
2018-09-04T17:51:48.604Z,92.40
2018-09-04T17:52:49.264Z,92.45
2018-09-04T17:53:49.061Z,93.27
2018-09-04T17:54:49.377Z,93.99
2018-09-04T17:55:49.597Z,93.99
2018-09-04T17:56:49.660Z,94.19
2018-09-04T17:57:49.769Z,93.99
2018-09-04T17:58:50.096Z,94.67
2018-09-04T17:59:50.229Z,94.29
2018-09-04T18:00:50.346Z,94.19
2018-09-04T18:01:50.501Z,94.57
2018-09-04T18:02:50.712Z,94.87
2018-09-04T18:03:50.863Z,95.25
2018-09-04T18:04:51.282Z,95.25
2018-09-04T18:05:51.389Z,95.83
2018-09-04T18:06:51.574Z,95.83
2018-09-04T18:07:51.763Z,95.50
2018-09-04T18:08:51.837Z,95.83
2018-09-04T18:09:52.116Z,95.83
2018-09-04T18:10:52.719Z,95.35
2018-09-04T18:11:52.509Z,95.11
2018-09-04T18:12:52.694Z,95.64
2018-09-04T18:13:52.917Z,95.93
2018-09-04T18:14:53.116Z,96.51
2018-09-04T18:15:53.406Z,96.22
2018-09-04T18:16:53.492Z,96.56
2018-09-04T18:17:53.815Z,96.99
2018-09-04T18:18:53.892Z,96.66
2018-09-04T18:19:54.104Z,95.88
2018-09-04T18:20:54.184Z,96.17
2018-09-04T18:21:55.212Z,96.08
2018-09-04T18:22:54.507Z,96.03
2018-09-04T18:23:54.756Z,96.08
2018-09-04T18:24:54.900Z,96.08
2018-09-04T18:25:55.069Z,96.17
2018-09-04T18:26:55.423Z,96.17
2018-09-04T18:27:55.545Z,97.04
2018-09-04T18:28:55.695Z,96.56
2018-09-04T18:29:55.844Z,96.75
2018-09-04T18:30:56.071Z,96.75
2018-09-04T18:31:56.218Z,97.81
2018-09-04T18:32:56.593Z,98.30
2018-09-04T18:33:56.796Z,98.25
2018-09-04T18:34:56.848Z,98.49
2018-09-04T18:35:57.017Z,97.57
2018-09-04T18:36:57.232Z,98.73
2018-09-04T18:37:58.216Z,99.99
2018-09-04T18:38:57.707Z,99.11
2018-09-04T18:39:57.754Z,99.40
2018-09-04T18:40:57.928Z,99.50
2018-09-04T18:41:58.138Z,99.40
2018-09-04T18:42:59.244Z,99.40
2018-09-04T18:43:58.591Z,99.02
2018-09-04T18:44:58.848Z,99.31
2018-09-04T18:45:59.917Z,99.40
2018-09-04T18:46:59.108Z,98.54
2018-09-04T18:47:59.263Z,98.10
2018-09-04T18:48:59.667Z,98.34
2018-09-04T18:49:59.802Z,99.40
2018-09-04T18:50:59.888Z,99.99
2018-09-04T18:52:00.171Z,99.31
2018-09-04T18:53:00.574Z,99.02
2018-09-04T18:54:00.516Z,99.02
2018-09-04T18:55:00.833Z,99.31
2018-09-04T18:56:01.025Z,99.11
2018-09-04T18:57:01.741Z,99.11
2018-09-04T18:58:01.429Z,99.31
2018-09-04T18:59:02.377Z,99.21
2018-09-04T19:00:01.687Z,99.31
2018-09-04T19:01:02.025Z,99.60
2018-09-04T19:02:02.404Z,99.21
2018-09-04T19:03:02.233Z,98.92
2018-09-04T19:04:02.639Z,98.73
2018-09-04T19:05:02.678Z,99.69
2018-09-04T19:06:02.786Z,99.21
2018-09-04T19:07:02.891Z,99.11
2018-09-04T19:08:03.252Z,99.60
2018-09-04T19:09:03.369Z,99.79
2018-09-04T19:10:03.551Z,99.99
2018-09-04T19:11:04.411Z,99.99
2018-09-04T19:12:04.095Z,99.99
2018-09-04T19:13:04.068Z,99.99
2018-09-04T19:14:04.745Z,99.99
2018-09-04T19:15:04.486Z,99.99
2018-09-04T19:16:04.757Z,99.99
2018-09-04T19:17:05.021Z,99.99
2018-09-04T19:18:05.194Z,99.99
2018-09-04T19:19:05.582Z,99.99
2018-09-04T19:20:05.616Z,99.99
2018-09-04T19:21:05.760Z,99.99
2018-09-04T19:22:06.257Z,99.99
2018-09-04T19:23:05.938Z,99.99
2018-09-04T19:24:06.379Z,99.99
2018-09-04T19:25:06.503Z,99.99
2018-09-04T19:26:06.566Z,99.99
2018-09-04T19:27:06.826Z,99.99
2018-09-04T19:28:07.739Z,99.99
2018-09-04T19:29:07.355Z,99.99
2018-09-04T19:30:07.762Z,99.99
2018-09-04T19:31:08.269Z,99.99
2018-09-04T19:32:07.705Z,99.99
2018-09-04T19:33:07.897Z,99.99
2018-09-04T19:34:08.032Z,99.99
2018-09-04T19:35:08.197Z,99.99
2018-09-04T19:36:08.487Z,99.99
2018-09-04T19:37:08.743Z,99.99
2018-09-04T19:38:08.809Z,99.99
2018-09-04T19:39:09.071Z,99.99
2018-09-04T19:40:09.176Z,99.99
2018-09-04T19:41:09.400Z,99.99
2018-09-04T19:42:09.738Z,99.99
2018-09-04T19:43:09.941Z,99.99
2018-09-04T19:44:10.008Z,99.99
2018-09-04T19:45:10.859Z,99.99
2018-09-04T19:46:10.321Z,99.99
2018-09-04T19:47:10.574Z,99.99
2018-09-04T19:48:10.778Z,99.99
2018-09-04T19:49:11.088Z,99.99
2018-09-04T19:50:11.127Z,99.99
2018-09-04T19:51:11.326Z,99.99
2018-09-04T19:52:11.450Z,99.99
2018-09-04T19:53:11.612Z,99.99
2018-09-04T19:54:11.865Z,99.99
2018-09-04T19:55:12.009Z,99.99
2018-09-04T19:56:12.984Z,99.99
2018-09-04T19:57:12.671Z,99.99
2018-09-04T19:58:12.600Z,99.99
2018-09-04T19:59:13.515Z,99.99
2018-09-04T20:00:13.249Z,99.99
2018-09-04T20:01:13.610Z,99.99
2018-09-04T20:02:13.470Z,99.99
2018-09-04T20:03:13.663Z,99.99
2018-09-04T20:04:13.964Z,99.99
2018-09-04T20:05:14.132Z,99.99
2018-09-04T20:06:14.315Z,99.99
2018-09-04T20:07:14.399Z,99.99
2018-09-04T20:08:14.585Z,99.99
2018-09-04T20:09:14.640Z,99.99
2018-09-04T20:10:14.854Z,99.99
2018-09-04T20:11:15.359Z,99.99
2018-09-04T20:12:15.275Z,99.99
2018-09-04T20:13:15.581Z,99.99
2018-09-04T20:14:15.585Z,99.99
2018-09-04T20:15:15.997Z,99.99
2018-09-04T20:16:16.027Z,99.99
2018-09-04T20:17:16.138Z,99.99
2018-09-04T20:18:16.265Z,99.99
2018-09-04T20:19:16.500Z,99.99
2018-09-04T20:20:16.924Z,99.99
2018-09-04T20:21:16.900Z,99.99
2018-09-04T20:22:17.030Z,99.99
2018-09-04T20:23:17.393Z,99.99
2018-09-04T20:24:17.664Z,99.99
2018-09-04T20:25:17.713Z,99.99
2018-09-04T20:26:17.850Z,99.99
2018-09-04T20:27:18.118Z,99.99
2018-09-04T20:28:18.293Z,99.99
2018-09-04T20:29:18.356Z,99.99
2018-09-04T20:30:18.548Z,99.99
2018-09-04T20:31:18.792Z,99.99
2018-09-04T20:32:18.912Z,99.99
2018-09-04T20:33:19.108Z,99.99
2018-09-04T20:34:19.339Z,99.99
2018-09-04T20:35:19.516Z,99.99
2018-09-04T20:36:19.681Z,99.99
2018-09-04T20:37:19.867Z,99.99
2018-09-04T20:38:20.061Z,99.99
2018-09-04T20:39:20.283Z,99.99
2018-09-04T20:40:20.408Z,99.99
2018-09-04T20:41:20.687Z,99.99
2018-09-04T20:42:20.824Z,99.99
2018-09-04T20:43:21.177Z,99.99
2018-09-04T20:44:21.260Z,99.99
2018-09-04T20:45:21.404Z,99.99
2018-09-04T20:46:21.673Z,99.99
2018-09-04T20:47:21.870Z,99.99
2018-09-04T20:48:21.950Z,99.99
2018-09-04T20:49:22.145Z,99.99
2018-09-04T20:50:22.345Z,99.99
2018-09-04T20:51:22.643Z,99.99
2018-09-04T20:52:22.691Z,99.99
2018-09-04T20:53:23.006Z,99.99
2018-09-04T20:54:23.220Z,99.99
2018-09-04T20:55:23.293Z,99.99
2018-09-04T20:56:23.475Z,99.99
2018-09-04T20:57:23.664Z,99.99
2018-09-04T20:58:24.076Z,99.99
2018-09-04T20:59:24.032Z,99.99
2018-09-04T21:00:24.280Z,99.99
2018-09-04T21:01:24.393Z,99.99
2018-09-04T21:02:24.543Z,99.99
2018-09-04T21:03:24.774Z,99.99
2018-09-04T21:04:24.982Z,99.99
2018-09-04T21:05:25.180Z,99.99
2018-09-04T21:06:25.310Z,99.99
2018-09-04T21:07:25.508Z,99.99
2018-09-04T21:08:26.080Z,99.99
2018-09-04T21:09:26.112Z,99.99
2018-09-04T21:10:26.619Z,99.99
2018-09-04T21:11:26.505Z,99.99
2018-09-04T21:12:26.744Z,99.99
2018-09-04T21:13:26.828Z,99.99
2018-09-04T21:14:27.006Z,99.99
2018-09-04T21:15:27.237Z,99.99
2018-09-04T21:16:27.522Z,99.99
2018-09-04T21:17:27.672Z,99.99
2018-09-04T21:18:27.765Z,99.99
2018-09-04T21:19:28.052Z,99.99
2018-09-04T21:20:28.240Z,99.99
2018-09-04T21:21:28.578Z,99.99
2018-09-04T21:22:28.595Z,99.99
2018-09-04T21:23:29.025Z,99.99
2018-09-04T21:24:29.022Z,99.99
2018-09-04T21:25:29.353Z,99.99
2018-09-04T21:26:29.553Z,99.99
2018-09-04T21:27:29.728Z,99.99
2018-09-04T21:28:29.823Z,99.99
2018-09-04T21:29:30.055Z,99.99
2018-09-04T21:30:30.314Z,99.99
2018-09-04T21:31:30.631Z,99.99
2018-09-04T21:32:30.858Z,99.99
2018-09-04T21:33:31.107Z,99.99
2018-09-04T21:34:31.232Z,99.99
2018-09-04T21:35:32.328Z,99.99
2018-09-04T21:36:31.652Z,99.99
2018-09-04T21:37:31.848Z,99.99
2018-09-04T21:38:31.984Z,99.99
2018-09-04T21:39:32.221Z,99.99
2018-09-04T21:40:32.381Z,99.99
2018-09-04T21:41:32.575Z,99.99
2018-09-04T21:42:33.275Z,99.99
2018-09-04T21:43:33.051Z,99.99
2018-09-04T21:44:33.264Z,99.99
2018-09-04T21:45:33.426Z,99.99
2018-09-04T21:46:33.619Z,99.99
2018-09-04T21:47:33.723Z,99.99
2018-09-04T21:48:33.961Z,99.99
2018-09-04T21:49:34.133Z,99.99
2018-09-04T21:50:34.339Z,99.99
2018-09-04T21:51:34.680Z,99.99
2018-09-04T21:52:34.664Z,99.99
2018-09-04T21:53:34.839Z,99.99
2018-09-04T21:54:35.002Z,99.99
2018-09-04T21:55:35.246Z,99.99
2018-09-04T21:56:36.387Z,99.99
2018-09-04T21:57:35.813Z,99.99
2018-09-04T21:58:35.848Z,99.99
2018-09-04T21:59:36.134Z,99.99
2018-09-04T22:00:36.253Z,99.99
2018-09-04T22:01:36.400Z,99.99
2018-09-04T22:02:36.563Z,99.99
2018-09-04T22:03:36.817Z,99.99
2018-09-04T22:04:37.004Z,99.99
2018-09-04T22:05:37.155Z,99.99
2018-09-04T22:06:37.321Z,99.99
2018-09-04T22:07:37.468Z,99.99
2018-09-04T22:08:38.355Z,99.99
2018-09-04T22:09:37.853Z,99.99
2018-09-04T22:10:38.075Z,99.99
2018-09-04T22:11:38.160Z,99.99
2018-09-04T22:12:38.365Z,99.99
2018-09-04T22:13:38.581Z,99.99
2018-09-04T22:14:38.788Z,99.99
2018-09-04T22:15:39.016Z,99.99
2018-09-04T22:16:39.158Z,99.99
2018-09-04T22:17:39.301Z,99.99
2018-09-04T22:18:39.490Z,99.99
2018-09-04T22:19:39.695Z,99.99
2018-09-04T22:20:39.890Z,99.99
2018-09-04T22:21:40.113Z,99.99
2018-09-04T22:22:40.377Z,99.99
2018-09-04T22:23:40.503Z,99.99
2018-09-04T22:24:40.599Z,99.99
2018-09-04T22:25:40.767Z,99.99
2018-09-04T22:26:40.968Z,99.99
2018-09-04T22:27:41.243Z,99.99
2018-09-04T22:28:41.358Z,99.99
2018-09-04T22:29:41.550Z,99.99
2018-09-04T22:30:41.734Z,99.99
2018-09-04T22:31:41.939Z,99.99
2018-09-04T22:32:42.100Z,99.99
2018-09-04T22:33:42.331Z,99.99
2018-09-04T22:34:42.487Z,99.99
2018-09-04T22:35:42.620Z,99.99
2018-09-04T22:36:42.802Z,99.99
2018-09-04T22:37:43.003Z,99.99
2018-09-04T22:38:43.276Z,99.99
2018-09-04T22:39:43.427Z,99.99
2018-09-04T22:40:43.563Z,99.99
2018-09-04T22:41:43.789Z,99.99
2018-09-04T22:42:44.031Z,99.99
2018-09-04T22:43:44.182Z,99.99
2018-09-04T22:44:44.421Z,99.99
2018-09-04T22:45:44.569Z,99.99
2018-09-04T22:46:44.900Z,99.99
2018-09-04T22:47:44.943Z,99.99
2018-09-04T22:48:45.096Z,99.99
2018-09-04T22:49:45.283Z,99.99
2018-09-04T22:50:46.473Z,99.99
2018-09-04T22:51:45.672Z,99.99
2018-09-04T22:52:45.794Z,99.99
2018-09-04T22:53:46.009Z,99.99
2018-09-04T22:54:46.234Z,99.99
2018-09-04T22:55:46.457Z,99.99
2018-09-04T22:56:46.627Z,99.99
2018-09-04T22:57:46.897Z,99.99
2018-09-04T22:58:47.177Z,99.99
2018-09-04T22:59:47.226Z,99.99
2018-09-04T23:00:47.477Z,99.99
2018-09-04T23:01:47.661Z,99.99
2018-09-04T23:02:47.700Z,99.99
2018-09-04T23:03:47.883Z,99.99
2018-09-04T23:04:48.215Z,99.99
2018-09-04T23:05:48.337Z,99.99
2018-09-04T23:06:48.552Z,99.99
2018-09-04T23:07:48.633Z,99.99
2018-09-04T23:08:48.865Z,99.99
2018-09-04T23:09:49.065Z,99.99
2018-09-04T23:10:49.242Z,99.99
2018-09-04T23:11:49.484Z,99.99
2018-09-04T23:12:49.582Z,99.99
2018-09-04T23:13:49.769Z,99.99
2018-09-04T23:14:49.922Z,99.99
2018-09-04T23:15:50.155Z,99.99
2018-09-04T23:16:50.334Z,99.99
2018-09-04T23:17:50.511Z,99.99
2018-09-04T23:18:50.755Z,99.99
2018-09-04T23:19:51.040Z,99.99
2018-09-04T23:20:51.219Z,99.99
2018-09-04T23:21:51.360Z,99.99
2018-09-04T23:22:51.514Z,99.99
2018-09-04T23:23:51.794Z,99.99
2018-09-04T23:24:51.924Z,99.99
2018-09-04T23:25:52.040Z,99.99
2018-09-04T23:26:52.282Z,99.99
2018-09-04T23:27:52.426Z,99.99
2018-09-04T23:28:52.710Z,99.99
2018-09-04T23:29:52.796Z,99.99
2018-09-04T23:30:53.116Z,99.99
2018-09-04T23:31:53.145Z,99.99
2018-09-04T23:32:53.353Z,99.99
2018-09-04T23:33:53.652Z,99.99
2018-09-04T23:34:53.738Z,99.99
2018-09-04T23:35:53.915Z,99.99
2018-09-04T23:36:54.126Z,99.99
2018-09-04T23:37:54.193Z,99.99
2018-09-04T23:38:54.469Z,99.99
2018-09-04T23:39:54.619Z,99.99
2018-09-04T23:40:54.843Z,99.99
2018-09-04T23:41:55.045Z,99.99
2018-09-04T23:42:55.339Z,99.99
2018-09-04T23:43:55.516Z,99.99
2018-09-04T23:44:55.640Z,99.99
2018-09-04T23:45:55.684Z,99.99
2018-09-04T23:46:56.016Z,99.99
2018-09-04T23:47:56.147Z,99.44
2018-09-04T23:48:56.354Z,99.34
2018-09-04T23:49:56.527Z,99.05
2018-09-04T23:50:56.665Z,99.34
2018-09-04T23:51:56.880Z,98.38
2018-09-04T23:52:57.037Z,98.28
2018-09-04T23:53:57.227Z,97.76
2018-09-04T23:54:57.927Z,97.81
2018-09-04T23:55:57.519Z,97.95
2018-09-04T23:56:57.705Z,97.85
2018-09-04T23:57:57.818Z,97.66
